Del Norte — WDC2280 — position and weather

sailwx.info

Track history (hours):
 
Tides and Currents Weather Stations Pressure Air Temp Water Temp Dewpoint Dewpoint Depression Visibility Wind Speed Wind Dir Waves Ship Positions

Del Norte

Owner: Golden Gate Bridge,Hwy & Transportation District, Larkspur, CA. More information available from US FCC via Universal Licensing System and Coast Guard Vessel Documentation Center.

Last reported at 2018-Feb-19 04:08 UTC. Time now 2018-Feb-19 08:09 UTC.
Position N 37°57' W 122°30'.

Length 48 m.

Type: High speed craft. MMSI: 366990520.

Date/timePositionNaut miles runAvg speedWind from/ knotsBaromVisibWave heightAir tempDewpointWater temp
2018-Feb-19 04:08N 37°57' W 122°30'0 0.0
2018-Feb-19 04:00N 37°57' W 122°30'1021.3
2018-Feb-19 03:30N 37°48' W 122°23'0 0.4
2018-Feb-19 03:00N 37°48' W 122°24'0 0.0
2018-Feb-19 02:30N 37°48' W 122°24'0 0.0
2018-Feb-19 02:00N 37°48' W 122°24'0 0.0
2018-Feb-19 01:30N 37°48' W 122°24'1019.2
2018-Feb-19 01:00N 37°56' W 122°29'1 2.0
2018-Feb-19 00:31N 37°57' W 122°31'510.6
2018-Feb-19 00:01N 37°53' W 122°26'611.0
2018-Feb-18 23:30N 37°48' W 122°24'0 0.0
2018-Feb-18 23:00N 37°48' W 122°24'0 0.0
2018-Feb-18 22:30N 37°48' W 122°24'611.7
2018-Feb-18 22:01N 37°53' W 122°26'5 9.2
2018-Feb-18 21:28N 37°57' W 122°31'510.0
2018-Feb-18 21:00N 37°54' W 122°26'612.6
2018-Feb-18 20:31N 37°48' W 122°24'816.8
2018-Feb-18 20:01N 37°55' W 122°28'2 4.8
2018-Feb-18 19:30N 37°57' W 122°31'0 0.0
2018-Feb-18 04:03N 37°57' W 122°31'0 0.0
2018-Feb-18 03:59N 37°57' W 122°31'1021.1
2018-Feb-18 03:31N 37°48' W 122°23'1 1.1
2018-Feb-18 03:01N 37°49' W 122°24'5 9.6
2018-Feb-18 02:30N 37°51' W 122°29'510.9
2018-Feb-18 02:00N 37°48' W 122°24'0 0.0
2018-Feb-18 01:30N 37°48' W 122°24'917.8
2018-Feb-18 01:01N 37°56' W 122°28'2 3.8
2018-Feb-18 00:30N 37°57' W 122°31'611.3
2018-Feb-18 00:01N 37°53' W 122°25'510.6
2018-Feb-17 23:30N 37°48' W 122°24'0 0.0
2018-Feb-17 23:00N 37°48' W 122°24'0 0.0
2018-Feb-17 22:30N 37°48' W 122°24'714.0
2018-Feb-17 22:01N 37°54' W 122°27'4 7.5
2018-Feb-17 21:30N 37°57' W 122°31'4 8.6
2018-Feb-17 21:01N 37°54' W 122°26'713.3
2018-Feb-17 20:31N 37°48' W 122°24'815.9
2018-Feb-17 20:00N 37°55' W 122°27'3 6.1
2018-Feb-17 19:30N 37°57' W 122°31'0 0.0
2018-Feb-17 05:59N 37°57' W 122°30'1022.0
2018-Feb-17 05:30N 37°48' W 122°24'918.7
2018-Feb-17 05:00N 37°56' W 122°29'0 0.2
2018-Feb-17 04:30N 37°56' W 122°29'918.6
2018-Feb-17 04:00N 37°48' W 122°24'1019.9
2018-Feb-17 03:30N 37°56' W 122°30'0 0.9
2018-Feb-17 03:01N 37°57' W 122°30'1020.8
2018-Feb-17 02:30N 37°48' W 122°24'5 9.1
2018-Feb-17 02:00N 37°52' W 122°25'612.3
2018-Feb-17 01:30N 37°57' W 122°30'1020.4
2018-Feb-17 01:00N 37°48' W 122°24'4 7.2
2018-Feb-17 00:30N 37°51' W 122°24'714.4
2018-Feb-17 00:00N 37°57' W 122°30'1021.0
2018-Feb-16 23:30N 37°48' W 122°24'1019.5
2018-Feb-16 23:00N 37°56' W 122°30'1 1.7
2018-Feb-16 22:30N 37°57' W 122°30'0 0.0
2018-Feb-16 22:00N 37°57' W 122°30'1019.3
2018-Feb-16 21:31N 37°49' W 122°23'3 5.9
2018-Feb-16 21:01N 37°52' W 122°25'713.5
2018-Feb-16 20:30N 37°57' W 122°30'1020.9
2018-Feb-16 20:01N 37°48' W 122°24'510.8
2018-Feb-16 19:30N 37°53' W 122°26'510.5
2018-Feb-16 19:00N 37°57' W 122°30'3 5.0
2018-Feb-16 18:31N 37°55' W 122°28'816.6
2018-Feb-16 18:00N 37°48' W 122°24'1019.2
2018-Feb-16 17:30N 37°56' W 122°29'1 2.0
2018-Feb-16 17:00N 37°57' W 122°30'1020.9
2018-Feb-16 16:30N 37°48' W 122°24'1019.1
2018-Feb-16 16:00N 37°56' W 122°29'3 5.5
2018-Feb-16 15:30N 37°54' W 122°27'611.4
2018-Feb-16 15:00N 37°49' W 122°24'918.2
2018-Feb-16 14:30N 37°57' W 122°31'0 0.0
2018-Feb-16 14:00N 37°57' W 122°31'0 0.0
2018-Feb-16 05:58N 37°57' W 122°30'1021.9
2018-Feb-16 05:30N 37°48' W 122°24'918.4
2018-Feb-16 05:01N 37°56' W 122°29'0 0.8
2018-Feb-16 04:31N 37°56' W 122°29'918.8
2018-Feb-16 04:00N 37°48' W 122°24'1019.9
2018-Feb-16 03:30N 37°56' W 122°30'0 0.5
2018-Feb-16 03:01N 37°57' W 122°30'1020.6
2018-Feb-16 02:30N 37°48' W 122°24'2 4.9
2018-Feb-16 02:00N 37°50' W 122°24'816.8
2018-Feb-16 01:31N 37°57' W 122°30'1020.8
2018-Feb-16 01:00N 37°48' W 122°24'3 6.3
2018-Feb-16 00:30N 37°51' W 122°25'714.9
2018-Feb-16 00:00N 37°57' W 122°30'1021.0
2018-Feb-15 23:31N 37°48' W 122°24'1019.1
2018-Feb-15 23:00N 37°56' W 122°29'1 2.0
2018-Feb-15 22:30N 37°57' W 122°30'0 0.0
2018-Feb-15 22:00N 37°57' W 122°30'918.8
2018-Feb-15 21:31N 37°49' W 122°23'3 6.6
2018-Feb-15 21:01N 37°52' W 122°25'612.3
2018-Feb-15 20:31N 37°57' W 122°30'1019.6
2018-Feb-15 20:01N 37°49' W 122°23'3 6.7
2018-Feb-15 19:31N 37°52' W 122°25'713.0
2018-Feb-15 19:00N 37°57' W 122°30'3 6.1
2018-Feb-15 18:31N 37°55' W 122°27'815.7
2018-Feb-15 18:00N 37°48' W 122°24'1019.1
2018-Feb-15 17:31N 37°56' W 122°29'1 2.1
2018-Feb-15 17:00N 37°57' W 122°30'1020.9
2018-Feb-15 16:30N 37°48' W 122°24'918.8
2018-Feb-15 16:01N 37°56' W 122°29'2 4.3
2018-Feb-15 15:31N 37°55' W 122°27'612.2
2018-Feb-15 15:00N 37°49' W 122°24'918.5
2018-Feb-15 14:31N 37°57' W 122°31'0 0.0
2018-Feb-15 14:00N 37°57' W 122°31'0 0.1
2018-Feb-15 06:00N 37°56' W 122°30'1020.3
2018-Feb-15 05:30N 37°48' W 122°24'918.7
2018-Feb-15 05:00N 37°56' W 122°29'0 0.6
2018-Feb-15 04:30N 37°56' W 122°29'1019.0
2018-Feb-15 04:00N 37°48' W 122°24'1019.9
2018-Feb-15 03:30N 37°56' W 122°30'0 0.2
2018-Feb-15 03:00N 37°57' W 122°30'1020.8
2018-Feb-15 02:30N 37°48' W 122°24'3 5.7
2018-Feb-15 02:00N 37°51' W 122°25'815.5
2018-Feb-15 01:30N 37°57' W 122°30'1020.9
2018-Feb-15 01:00N 37°48' W 122°24'5 9.2
2018-Feb-15 00:30N 37°52' W 122°25'611.7
2018-Feb-14 23:59N 37°57' W 122°30'1021.5
2018-Feb-14 23:30N 37°48' W 122°24'1019.1
2018-Feb-14 23:00N 37°56' W 122°30'1 1.6
2018-Feb-14 22:30N 37°57' W 122°31'0 0.0
2018-Feb-14 21:56N 37°57' W 122°31'1022.4
2018-Feb-14 21:30N 37°49' W 122°23'2 4.3
2018-Feb-14 21:00N 37°51' W 122°24'813.5
2018-Feb-14 20:27N 37°57' W 122°30'1022.4
2018-Feb-14 20:01N 37°48' W 122°23'4 8.7
2018-Feb-14 19:30N 37°52' W 122°25'611.6
2018-Feb-14 19:00N 37°57' W 122°30'2 3.3
2018-Feb-14 18:30N 37°56' W 122°29'918.1
2018-Feb-14 18:00N 37°48' W 122°24'918.9
2018-Feb-14 17:30N 37°56' W 122°29'1 2.3
2018-Feb-14 17:00N 37°57' W 122°30'1021.0
2018-Feb-14 16:30N 37°48' W 122°24'918.8
2018-Feb-14 16:00N 37°56' W 122°29'2 4.9
2018-Feb-14 15:31N 37°55' W 122°27'612.0
2018-Feb-14 15:01N 37°49' W 122°24'918.5
2018-Feb-14 14:30N 37°57' W 122°31'0 0.0
2018-Feb-14 14:01N 37°57' W 122°31'0 0.0
2018-Feb-14 05:57N 37°56' W 122°30'1022.6
2018-Feb-14 05:30N 37°48' W 122°24'817.0
2018-Feb-14 05:00N 37°55' W 122°28'1 2.3
2018-Feb-14 04:31N 37°56' W 122°29'1019.0
2018-Feb-14 04:00N 37°48' W 122°24'1020.1
2018-Feb-14 03:30N 37°57' W 122°30'0 0.5
2018-Feb-14 03:00N 37°57' W 122°30'1020.8
2018-Feb-14 02:30N 37°48' W 122°24'4 8.6
2018-Feb-14 02:01N 37°52' W 122°25'612.7
2018-Feb-14 01:30N 37°57' W 122°30'1020.7
2018-Feb-14 01:00N 37°48' W 122°24'4 7.9
2018-Feb-14 00:31N 37°52' W 122°25'713.4
2018-Feb-14 00:00N 37°57' W 122°30'1021.0
2018-Feb-13 23:31N 37°48' W 122°24'1019.4
2018-Feb-13 23:00N 37°56' W 122°30'1 1.6
2018-Feb-13 22:30N 37°57' W 122°30'0 0.0
2018-Feb-13 22:00N 37°57' W 122°30'1020.0
2018-Feb-13 21:31N 37°49' W 122°23'2 4.1
2018-Feb-13 21:01N 37°51' W 122°24'815.9
2018-Feb-13 20:30N 37°57' W 122°30'1021.0
2018-Feb-13 20:00N 37°48' W 122°23'5 9.3
2018-Feb-13 19:31N 37°52' W 122°25'611.7
2018-Feb-13 19:00N 37°57' W 122°30'3 6.5
2018-Feb-13 18:30N 37°55' W 122°27'815.4
2018-Feb-13 18:00N 37°48' W 122°24'918.8
2018-Feb-13 17:31N 37°56' W 122°29'1 2.5
2018-Feb-13 17:00N 37°57' W 122°30'1020.9
2018-Feb-13 16:30N 37°48' W 122°24'918.8
2018-Feb-13 16:01N 37°56' W 122°29'3 5.5
2018-Feb-13 15:31N 37°54' W 122°27'510.0
2018-Feb-13 15:01N 37°50' W 122°24'917.4
2018-Feb-13 14:30N 37°57' W 122°31'0 0.0
2018-Feb-13 13:59N 37°57' W 122°31'1 0.1
2018-Feb-13 05:56N 37°56' W 122°30'1023.1
2018-Feb-13 05:30N 37°48' W 122°24'918.3
2018-Feb-13 05:01N 37°56' W 122°29'0 0.4
2018-Feb-13 04:31N 37°56' W 122°29'918.5
2018-Feb-13 04:01N 37°48' W 122°24'1020.1
2018-Feb-13 03:30N 37°56' W 122°30'0 0.8
2018-Feb-13 03:00N 37°57' W 122°30'1020.9
2018-Feb-13 02:30N 37°48' W 122°24'3 5.6
2018-Feb-13 02:00N 37°51' W 122°24'815.8
2018-Feb-13 01:30N 37°57' W 122°30'1020.9
2018-Feb-13 01:01N 37°48' W 122°23'4 7.6
2018-Feb-13 00:30N 37°52' W 122°25'713.5
2018-Feb-13 00:00N 37°57' W 122°30'1021.0
2018-Feb-12 23:30N 37°48' W 122°24'918.2
2018-Feb-12 23:01N 37°56' W 122°29'2 3.2
2018-Feb-12 22:30N 37°57' W 122°30'0 0.0
2018-Feb-12 22:00N 37°57' W 122°30'919.1
2018-Feb-12 21:30N 37°49' W 122°24'3 5.8
2018-Feb-12 21:00N 37°52' W 122°25'713.4
2018-Feb-12 20:30N 37°57' W 122°30'918.7
2018-Feb-12 20:01N 37°49' W 122°24'4 7.7
2018-Feb-12 19:30N 37°53' W 122°25'611.3
2018-Feb-12 19:01N 37°57' W 122°30'2 4.3
2018-Feb-12 18:30N 37°56' W 122°28'917.0
2018-Feb-12 18:00N 37°48' W 122°24'918.8
2018-Feb-12 17:30N 37°56' W 122°29'1 2.7
2018-Feb-12 17:00N 37°57' W 122°30'1020.8
2018-Feb-12 16:30N 37°48' W 122°24'816.6
2018-Feb-12 16:00N 37°55' W 122°28'1 1.6
2018-Feb-12 15:31N 37°55' W 122°27'612.4
2018-Feb-12 15:01N 37°49' W 122°24'918.4
2018-Feb-12 14:30N 37°57' W 122°31'0 0.0
2018-Feb-12 14:00N 37°57' W 122°31'0 0.0
2018-Feb-11 04:11N 37°57' W 122°30'0 1.3
2018-Feb-11 04:00N 37°57' W 122°30'1020.4
2018-Feb-11 03:30N 37°48' W 122°23'2 4.4
2018-Feb-11 03:01N 37°50' W 122°25'3 6.6
2018-Feb-11 02:30N 37°51' W 122°29'511.0
2018-Feb-11 02:01N 37°48' W 122°24'0 0.0
2018-Feb-11 01:31N 37°48' W 122°24'917.8
2018-Feb-11 01:00N 37°56' W 122°28'2 3.4
2018-Feb-11 00:28N 37°57' W 122°31'612.3
2018-Feb-11 00:01N 37°53' W 122°25'510.4
2018-Feb-10 23:30N 37°48' W 122°24'3 6.3
2018-Feb-10 23:00N 37°51' W 122°22'3 6.3
2018-Feb-10 22:30N 37°48' W 122°24'612.4
2018-Feb-10 22:01N 37°54' W 122°26'5 8.8
2018-Feb-10 21:30N 37°57' W 122°31'4 7.3
2018-Feb-10 21:01N 37°55' W 122°27'714.7
2018-Feb-10 20:30N 37°48' W 122°24'815.8
2018-Feb-10 20:00N 37°55' W 122°27'3 5.3
2018-Feb-10 19:28N 37°57' W 122°31'0 0.0
2018-Feb-10 05:58N 37°57' W 122°30'1021.7
2018-Feb-10 05:30N 37°48' W 122°24'918.2
2018-Feb-10 05:01N 37°56' W 122°28'1 1.4
2018-Feb-10 04:31N 37°56' W 122°29'918.9
2018-Feb-10 04:00N 37°48' W 122°24'1019.8
2018-Feb-10 03:30N 37°56' W 122°30'0 0.7
2018-Feb-10 02:59N 37°57' W 122°30'1021.6
2018-Feb-10 02:30N 37°48' W 122°24'3 5.4
2018-Feb-10 02:00N 37°50' W 122°24'815.8
2018-Feb-10 01:30N 37°57' W 122°30'1020.8
2018-Feb-10 01:00N 37°48' W 122°24'4 7.2
2018-Feb-10 00:31N 37°51' W 122°25'714.3
2018-Feb-10 00:00N 37°57' W 122°30'1020.8
2018-Feb-09 23:30N 37°48' W 122°24'917.6
2018-Feb-09 23:00N 37°56' W 122°28'2 8.2
2018-Feb-09 22:46N 37°57' W 122°30'10 7.8
2018-Feb-09 21:31N 37°49' W 122°23'3 6.7
2018-Feb-09 21:01N 37°52' W 122°25'4 3.8
2018-Feb-09 20:00N 37°48' W 122°23'4 8.5
2018-Feb-09 19:30N 37°52' W 122°25'3 3.3
2018-Feb-09 18:30N 37°55' W 122°27'815.9
2018-Feb-09 18:01N 37°48' W 122°24'1019.2
2018-Feb-09 17:30N 37°56' W 122°29'1 1.6
2018-Feb-09 17:01N 37°57' W 122°30'1020.6
2018-Feb-09 16:30N 37°48' W 122°24'7 7.3
2018-Feb-09 15:30N 37°55' W 122°27'611.7
2018-Feb-09 15:01N 37°49' W 122°24'8 0.8
2018-Feb-09 05:00N 37°56' W 122°29'  
Track history (hours):
 
Tides and Currents Weather Stations Pressure Air Temp Water Temp Dewpoint Dewpoint Depression Visibility Wind Speed Wind Dir Waves Ship Positions

Del Norte

Owner: Golden Gate Bridge,Hwy & Transportation District, Larkspur, CA. More information available from US FCC via Universal Licensing System and Coast Guard Vessel Documentation Center.

Last reported at 2018-Feb-19 04:08 UTC. Time now 2018-Feb-19 08:09 UTC.
Position N 37°57' W 122°30'.

Length 48 m.

Type: High speed craft. MMSI: 366990520.

Date/timePositionNaut miles runAvg speedWind from/ knotsBaromVisibWave heightAir tempDewpointWater temp
2018-Feb-19 04:08N 37°57' W 122°30'0 0.0
2018-Feb-19 04:00N 37°57' W 122°30'1021.3
2018-Feb-19 03:30N 37°48' W 122°23'0 0.4
2018-Feb-19 03:00N 37°48' W 122°24'0 0.0
2018-Feb-19 02:30N 37°48' W 122°24'0 0.0
2018-Feb-19 02:00N 37°48' W 122°24'0 0.0
2018-Feb-19 01:30N 37°48' W 122°24'1019.2
2018-Feb-19 01:00N 37°56' W 122°29'1 2.0
2018-Feb-19 00:31N 37°57' W 122°31'510.6
2018-Feb-19 00:01N 37°53' W 122°26'611.0
2018-Feb-18 23:30N 37°48' W 122°24'0 0.0
2018-Feb-18 23:00N 37°48' W 122°24'0 0.0
2018-Feb-18 22:30N 37°48' W 122°24'611.7
2018-Feb-18 22:01N 37°53' W 122°26'5 9.2
2018-Feb-18 21:28N 37°57' W 122°31'510.0
2018-Feb-18 21:00N 37°54' W 122°26'612.6
2018-Feb-18 20:31N 37°48' W 122°24'816.8
2018-Feb-18 20:01N 37°55' W 122°28'2 4.8
2018-Feb-18 19:30N 37°57' W 122°31'0 0.0
2018-Feb-18 04:03N 37°57' W 122°31'0 0.0
2018-Feb-18 03:59N 37°57' W 122°31'1021.1
2018-Feb-18 03:31N 37°48' W 122°23'1 1.1
2018-Feb-18 03:01N 37°49' W 122°24'5 9.6
2018-Feb-18 02:30N 37°51' W 122°29'510.9
2018-Feb-18 02:00N 37°48' W 122°24'0 0.0
2018-Feb-18 01:30N 37°48' W 122°24'917.8
2018-Feb-18 01:01N 37°56' W 122°28'2 3.8
2018-Feb-18 00:30N 37°57' W 122°31'611.3
2018-Feb-18 00:01N 37°53' W 122°25'510.6
2018-Feb-17 23:30N 37°48' W 122°24'0 0.0
2018-Feb-17 23:00N 37°48' W 122°24'0 0.0
2018-Feb-17 22:30N 37°48' W 122°24'714.0
2018-Feb-17 22:01N 37°54' W 122°27'4 7.5
2018-Feb-17 21:30N 37°57' W 122°31'4 8.6
2018-Feb-17 21:01N 37°54' W 122°26'713.3
2018-Feb-17 20:31N 37°48' W 122°24'815.9
2018-Feb-17 20:00N 37°55' W 122°27'3 6.1
2018-Feb-17 19:30N 37°57' W 122°31'0 0.0
2018-Feb-17 05:59N 37°57' W 122°30'1022.0
2018-Feb-17 05:30N 37°48' W 122°24'918.7
2018-Feb-17 05:00N 37°56' W 122°29'0 0.2
2018-Feb-17 04:30N 37°56' W 122°29'918.6
2018-Feb-17 04:00N 37°48' W 122°24'1019.9
2018-Feb-17 03:30N 37°56' W 122°30'0 0.9
2018-Feb-17 03:01N 37°57' W 122°30'1020.8
2018-Feb-17 02:30N 37°48' W 122°24'5 9.1
2018-Feb-17 02:00N 37°52' W 122°25'612.3
2018-Feb-17 01:30N 37°57' W 122°30'1020.4
2018-Feb-17 01:00N 37°48' W 122°24'4 7.2
2018-Feb-17 00:30N 37°51' W 122°24'714.4
2018-Feb-17 00:00N 37°57' W 122°30'1021.0
2018-Feb-16 23:30N 37°48' W 122°24'1019.5
2018-Feb-16 23:00N 37°56' W 122°30'1 1.7
2018-Feb-16 22:30N 37°57' W 122°30'0 0.0
2018-Feb-16 22:00N 37°57' W 122°30'1019.3
2018-Feb-16 21:31N 37°49' W 122°23'3 5.9
2018-Feb-16 21:01N 37°52' W 122°25'713.5
2018-Feb-16 20:30N 37°57' W 122°30'1020.9
2018-Feb-16 20:01N 37°48' W 122°24'510.8
2018-Feb-16 19:30N 37°53' W 122°26'510.5
2018-Feb-16 19:00N 37°57' W 122°30'3 5.0
2018-Feb-16 18:31N 37°55' W 122°28'816.6
2018-Feb-16 18:00N 37°48' W 122°24'1019.2
2018-Feb-16 17:30N 37°56' W 122°29'1 2.0
2018-Feb-16 17:00N 37°57' W 122°30'1020.9
2018-Feb-16 16:30N 37°48' W 122°24'1019.1
2018-Feb-16 16:00N 37°56' W 122°29'3 5.5
2018-Feb-16 15:30N 37°54' W 122°27'611.4
2018-Feb-16 15:00N 37°49' W 122°24'918.2
2018-Feb-16 14:30N 37°57' W 122°31'0 0.0
2018-Feb-16 14:00N 37°57' W 122°31'0 0.0
2018-Feb-16 05:58N 37°57' W 122°30'1021.9
2018-Feb-16 05:30N 37°48' W 122°24'918.4
2018-Feb-16 05:01N 37°56' W 122°29'0 0.8
2018-Feb-16 04:31N 37°56' W 122°29'918.8
2018-Feb-16 04:00N 37°48' W 122°24'1019.9
2018-Feb-16 03:30N 37°56' W 122°30'0 0.5
2018-Feb-16 03:01N 37°57' W 122°30'1020.6
2018-Feb-16 02:30N 37°48' W 122°24'2 4.9
2018-Feb-16 02:00N 37°50' W 122°24'816.8
2018-Feb-16 01:31N 37°57' W 122°30'1020.8
2018-Feb-16 01:00N 37°48' W 122°24'3 6.3
2018-Feb-16 00:30N 37°51' W 122°25'714.9
2018-Feb-16 00:00N 37°57' W 122°30'1021.0
2018-Feb-15 23:31N 37°48' W 122°24'1019.1
2018-Feb-15 23:00N 37°56' W 122°29'1 2.0
2018-Feb-15 22:30N 37°57' W 122°30'0 0.0
2018-Feb-15 22:00N 37°57' W 122°30'918.8
2018-Feb-15 21:31N 37°49' W 122°23'3 6.6
2018-Feb-15 21:01N 37°52' W 122°25'612.3
2018-Feb-15 20:31N 37°57' W 122°30'1019.6
2018-Feb-15 20:01N 37°49' W 122°23'3 6.7
2018-Feb-15 19:31N 37°52' W 122°25'713.0
2018-Feb-15 19:00N 37°57' W 122°30'3 6.1
2018-Feb-15 18:31N 37°55' W 122°27'815.7
2018-Feb-15 18:00N 37°48' W 122°24'1019.1
2018-Feb-15 17:31N 37°56' W 122°29'1 2.1
2018-Feb-15 17:00N 37°57' W 122°30'1020.9
2018-Feb-15 16:30N 37°48' W 122°24'918.8
2018-Feb-15 16:01N 37°56' W 122°29'2 4.3
2018-Feb-15 15:31N 37°55' W 122°27'612.2
2018-Feb-15 15:00N 37°49' W 122°24'918.5
2018-Feb-15 14:31N 37°57' W 122°31'0 0.0
2018-Feb-15 14:00N 37°57' W 122°31'0 0.1
2018-Feb-15 06:00N 37°56' W 122°30'1020.3
2018-Feb-15 05:30N 37°48' W 122°24'918.7
2018-Feb-15 05:00N 37°56' W 122°29'0 0.6
2018-Feb-15 04:30N 37°56' W 122°29'1019.0
2018-Feb-15 04:00N 37°48' W 122°24'1019.9
2018-Feb-15 03:30N 37°56' W 122°30'0 0.2
2018-Feb-15 03:00N 37°57' W 122°30'1020.8
2018-Feb-15 02:30N 37°48' W 122°24'3 5.7
2018-Feb-15 02:00N 37°51' W 122°25'815.5
2018-Feb-15 01:30N 37°57' W 122°30'1020.9
2018-Feb-15 01:00N 37°48' W 122°24'5 9.2
2018-Feb-15 00:30N 37°52' W 122°25'611.7
2018-Feb-14 23:59N 37°57' W 122°30'1021.5
2018-Feb-14 23:30N 37°48' W 122°24'1019.1
2018-Feb-14 23:00N 37°56' W 122°30'1 1.6
2018-Feb-14 22:30N 37°57' W 122°31'0 0.0
2018-Feb-14 21:56N 37°57' W 122°31'1022.4
2018-Feb-14 21:30N 37°49' W 122°23'2 4.3
2018-Feb-14 21:00N 37°51' W 122°24'813.5
2018-Feb-14 20:27N 37°57' W 122°30'1022.4
2018-Feb-14 20:01N 37°48' W 122°23'4 8.7
2018-Feb-14 19:30N 37°52' W 122°25'611.6
2018-Feb-14 19:00N 37°57' W 122°30'2 3.3
2018-Feb-14 18:30N 37°56' W 122°29'918.1
2018-Feb-14 18:00N 37°48' W 122°24'918.9
2018-Feb-14 17:30N 37°56' W 122°29'1 2.3
2018-Feb-14 17:00N 37°57' W 122°30'1021.0
2018-Feb-14 16:30N 37°48' W 122°24'918.8
2018-Feb-14 16:00N 37°56' W 122°29'2 4.9
2018-Feb-14 15:31N 37°55' W 122°27'612.0
2018-Feb-14 15:01N 37°49' W 122°24'918.5
2018-Feb-14 14:30N 37°57' W 122°31'0 0.0
2018-Feb-14 14:01N 37°57' W 122°31'0 0.0
2018-Feb-14 05:57N 37°56' W 122°30'1022.6
2018-Feb-14 05:30N 37°48' W 122°24'817.0
2018-Feb-14 05:00N 37°55' W 122°28'1 2.3
2018-Feb-14 04:31N 37°56' W 122°29'1019.0
2018-Feb-14 04:00N 37°48' W 122°24'1020.1
2018-Feb-14 03:30N 37°57' W 122°30'0 0.5
2018-Feb-14 03:00N 37°57' W 122°30'1020.8
2018-Feb-14 02:30N 37°48' W 122°24'4 8.6
2018-Feb-14 02:01N 37°52' W 122°25'612.7
2018-Feb-14 01:30N 37°57' W 122°30'1020.7
2018-Feb-14 01:00N 37°48' W 122°24'4 7.9
2018-Feb-14 00:31N 37°52' W 122°25'713.4
2018-Feb-14 00:00N 37°57' W 122°30'1021.0
2018-Feb-13 23:31N 37°48' W 122°24'1019.4
2018-Feb-13 23:00N 37°56' W 122°30'1 1.6
2018-Feb-13 22:30N 37°57' W 122°30'0 0.0
2018-Feb-13 22:00N 37°57' W 122°30'1020.0
2018-Feb-13 21:31N 37°49' W 122°23'2 4.1
2018-Feb-13 21:01N 37°51' W 122°24'815.9
2018-Feb-13 20:30N 37°57' W 122°30'1021.0
2018-Feb-13 20:00N 37°48' W 122°23'5 9.3
2018-Feb-13 19:31N 37°52' W 122°25'611.7
2018-Feb-13 19:00N 37°57' W 122°30'3 6.5
2018-Feb-13 18:30N 37°55' W 122°27'815.4
2018-Feb-13 18:00N 37°48' W 122°24'918.8
2018-Feb-13 17:31N 37°56' W 122°29'1 2.5
2018-Feb-13 17:00N 37°57' W 122°30'1020.9
2018-Feb-13 16:30N 37°48' W 122°24'918.8
2018-Feb-13 16:01N 37°56' W 122°29'3 5.5
2018-Feb-13 15:31N 37°54' W 122°27'510.0
2018-Feb-13 15:01N 37°50' W 122°24'917.4
2018-Feb-13 14:30N 37°57' W 122°31'0 0.0
2018-Feb-13 13:59N 37°57' W 122°31'1 0.1
2018-Feb-13 05:56N 37°56' W 122°30'1023.1
2018-Feb-13 05:30N 37°48' W 122°24'918.3
2018-Feb-13 05:01N 37°56' W 122°29'0 0.4
2018-Feb-13 04:31N 37°56' W 122°29'918.5
2018-Feb-13 04:01N 37°48' W 122°24'1020.1
2018-Feb-13 03:30N 37°56' W 122°30'0 0.8
2018-Feb-13 03:00N 37°57' W 122°30'1020.9
2018-Feb-13 02:30N 37°48' W 122°24'3 5.6
2018-Feb-13 02:00N 37°51' W 122°24'815.8
2018-Feb-13 01:30N 37°57' W 122°30'1020.9
2018-Feb-13 01:01N 37°48' W 122°23'4 7.6
2018-Feb-13 00:30N 37°52' W 122°25'713.5
2018-Feb-13 00:00N 37°57' W 122°30'1021.0
2018-Feb-12 23:30N 37°48' W 122°24'918.2
2018-Feb-12 23:01N 37°56' W 122°29'2 3.2
2018-Feb-12 22:30N 37°57' W 122°30'0 0.0
2018-Feb-12 22:00N 37°57' W 122°30'919.1
2018-Feb-12 21:30N 37°49' W 122°24'3 5.8
2018-Feb-12 21:00N 37°52' W 122°25'713.4
2018-Feb-12 20:30N 37°57' W 122°30'918.7
2018-Feb-12 20:01N 37°49' W 122°24'4 7.7
2018-Feb-12 19:30N 37°53' W 122°25'611.3
2018-Feb-12 19:01N 37°57' W 122°30'2 4.3
2018-Feb-12 18:30N 37°56' W 122°28'917.0
2018-Feb-12 18:00N 37°48' W 122°24'918.8
2018-Feb-12 17:30N 37°56' W 122°29'1 2.7
2018-Feb-12 17:00N 37°57' W 122°30'1020.8
2018-Feb-12 16:30N 37°48' W 122°24'816.6
2018-Feb-12 16:00N 37°55' W 122°28'1 1.6
2018-Feb-12 15:31N 37°55' W 122°27'612.4
2018-Feb-12 15:01N 37°49' W 122°24'918.4
2018-Feb-12 14:30N 37°57' W 122°31'0 0.0
2018-Feb-12 14:00N 37°57' W 122°31'0 0.0
2018-Feb-11 04:11N 37°57' W 122°30'0 1.3
2018-Feb-11 04:00N 37°57' W 122°30'1020.4
2018-Feb-11 03:30N 37°48' W 122°23'2 4.4
2018-Feb-11 03:01N 37°50' W 122°25'3 6.6
2018-Feb-11 02:30N 37°51' W 122°29'511.0
2018-Feb-11 02:01N 37°48' W 122°24'0 0.0
2018-Feb-11 01:31N 37°48' W 122°24'917.8
2018-Feb-11 01:00N 37°56' W 122°28'2 3.4
2018-Feb-11 00:28N 37°57' W 122°31'612.3
2018-Feb-11 00:01N 37°53' W 122°25'510.4
2018-Feb-10 23:30N 37°48' W 122°24'3 6.3
2018-Feb-10 23:00N 37°51' W 122°22'3 6.3
2018-Feb-10 22:30N 37°48' W 122°24'612.4
2018-Feb-10 22:01N 37°54' W 122°26'5 8.8
2018-Feb-10 21:30N 37°57' W 122°31'4 7.3
2018-Feb-10 21:01N 37°55' W 122°27'714.7
2018-Feb-10 20:30N 37°48' W 122°24'815.8
2018-Feb-10 20:00N 37°55' W 122°27'3 5.3
2018-Feb-10 19:28N 37°57' W 122°31'0 0.0
2018-Feb-10 05:58N 37°57' W 122°30'1021.7
2018-Feb-10 05:30N 37°48' W 122°24'918.2
2018-Feb-10 05:01N 37°56' W 122°28'1 1.4
2018-Feb-10 04:31N 37°56' W 122°29'918.9
2018-Feb-10 04:00N 37°48' W 122°24'1019.8
2018-Feb-10 03:30N 37°56' W 122°30'0 0.7
2018-Feb-10 02:59N 37°57' W 122°30'1021.6
2018-Feb-10 02:30N 37°48' W 122°24'3 5.4
2018-Feb-10 02:00N 37°50' W 122°24'815.8
2018-Feb-10 01:30N 37°57' W 122°30'1020.8
2018-Feb-10 01:00N 37°48' W 122°24'4 7.2
2018-Feb-10 00:31N 37°51' W 122°25'714.3
2018-Feb-10 00:00N 37°57' W 122°30'1020.8
2018-Feb-09 23:30N 37°48' W 122°24'917.6
2018-Feb-09 23:00N 37°56' W 122°28'2 8.2
2018-Feb-09 22:46N 37°57' W 122°30'10 7.8
2018-Feb-09 21:31N 37°49' W 122°23'3 6.7
2018-Feb-09 21:01N 37°52' W 122°25'4 3.8
2018-Feb-09 20:00N 37°48' W 122°23'4 8.5
2018-Feb-09 19:30N 37°52' W 122°25'3 3.3
2018-Feb-09 18:30N 37°55' W 122°27'815.9
2018-Feb-09 18:01N 37°48' W 122°24'1019.2
2018-Feb-09 17:30N 37°56' W 122°29'1 1.6
2018-Feb-09 17:01N 37°57' W 122°30'1020.6
2018-Feb-09 16:30N 37°48' W 122°24'7 7.3
2018-Feb-09 15:30N 37°55' W 122°27'611.7
2018-Feb-09 15:01N 37°49' W 122°24'8 0.8
2018-Feb-09 05:00N 37°56' W 122°29'  

Dump ship's entire track history